Arapahoe, Wyoming
Current Conditions -  °F | °C
As of 5:53 AM on Friday 31 Oct 2014 (Local Time) from KRIW Reporting Station
Clear Clear  
Wind Chill: 31°   Ceiling: Unl
Heat Index: 35°   Visibility: 10mi
Dew Point: 25°   Wind: 5mph
Humidity: 67%   Direction: 310°NW
Pressure: 30.16"   Gusts: NA
Location:  42.96°N, 108.49°W
Report Text: KRIW 311153Z AUTO 31004KT 10SM CLR 02/M04 A3016 RMK AO2 SLP204 T00171039 10039 20011 58013
Loading
Personal Weather Stations






























Interactive Weather Map
Tropical Storm Tracking
New forecast layout! Learn more

10-Day Weather Forecast

Advertisements
Track Severe Weather on mobile